sensor_id;sensor_type;location;lat;lon;timestamp;P1;durP1;ratioP1;P2;durP2;ratioP2
7883;SDS011;3987;51.458;7.238;2024-03-06T00:05:34;152.37;;;71.93;;
7883;SDS011;3987;51.458;7.238;2024-03-06T00:20:34;335.65;;;75.45;;
7883;SDS011;3987;51.458;7.238;2024-03-06T00:35:34;393.20;;;82.17;;
7883;SDS011;3987;51.458;7.238;2024-03-06T00:50:35;150.57;;;60.57;;
7883;SDS011;3987;51.458;7.238;2024-03-06T01:05:35;411.52;;;85.07;;
7883;SDS011;3987;51.458;7.238;2024-03-06T01:20:36;145.40;;;68.88;;
7883;SDS011;3987;51.458;7.238;2024-03-06T01:35:37;229.90;;;80.25;;
7883;SDS011;3987;51.458;7.238;2024-03-06T01:50:37;224.30;;;78.88;;
7883;SDS011;3987;51.458;7.238;2024-03-06T02:05:38;231.82;;;76.82;;
7883;SDS011;3987;51.458;7.238;2024-03-06T02:20:38;234.00;;;74.95;;
7883;SDS011;3987;51.458;7.238;2024-03-06T02:35:40;178.00;;;67.30;;
7883;SDS011;3987;51.458;7.238;2024-03-06T02:50:40;174.95;;;66.57;;
7883;SDS011;3987;51.458;7.238;2024-03-06T03:05:41;198.60;;;66.63;;
7883;SDS011;3987;51.458;7.238;2024-03-06T03:20:41;166.27;;;60.70;;
7883;SDS011;3987;51.458;7.238;2024-03-06T03:35:42;175.57;;;62.90;;
7883;SDS011;3987;51.458;7.238;2024-03-06T03:50:42;171.05;;;61.17;;
7883;SDS011;3987;51.458;7.238;2024-03-06T04:05:43;147.63;;;59.70;;
7883;SDS011;3987;51.458;7.238;2024-03-06T04:20:43;120.15;;;55.60;;
7883;SDS011;3987;51.458;7.238;2024-03-06T04:35:44;107.20;;;53.83;;
7883;SDS011;3987;51.458;7.238;2024-03-06T04:50:44;109.50;;;55.07;;
7883;SDS011;3987;51.458;7.238;2024-03-06T05:05:45;107.47;;;52.20;;
7883;SDS011;3987;51.458;7.238;2024-03-06T05:20:46;121.72;;;58.80;;
7883;SDS011;3987;51.458;7.238;2024-03-06T05:35:46;128.73;;;57.67;;
7883;SDS011;3987;51.458;7.238;2024-03-06T05:50:47;132.40;;;61.15;;
7883;SDS011;3987;51.458;7.238;2024-03-06T06:05:47;198.10;;;71.35;;
7883;SDS011;3987;51.458;7.238;2024-03-06T06:20:48;226.37;;;69.47;;
7883;SDS011;3987;51.458;7.238;2024-03-06T06:35:48;229.87;;;71.13;;
7883;SDS011;3987;51.458;7.238;2024-03-06T06:50:49;249.40;;;69.97;;
7883;SDS011;3987;51.458;7.238;2024-03-06T07:05:49;234.43;;;70.43;;
7883;SDS011;3987;51.458;7.238;2024-03-06T07:20:50;205.50;;;71.77;;
7883;SDS011;3987;51.458;7.238;2024-03-06T07:35:50;225.13;;;76.93;;
7883;SDS011;3987;51.458;7.238;2024-03-06T07:50:51;164.50;;;68.38;;
7883;SDS011;3987;51.458;7.238;2024-03-06T08:05:52;123.75;;;56.38;;
7883;SDS011;3987;51.458;7.238;2024-03-06T08:20:55;108.40;;;51.63;;
7883;SDS011;3987;51.458;7.238;2024-03-06T08:35:56;111.10;;;56.25;;
7883;SDS011;3987;51.458;7.238;2024-03-06T08:50:58;91.83;;;52.73;;
7883;SDS011;3987;51.458;7.238;2024-03-06T09:05:58;78.70;;;49.97;;
7883;SDS011;3987;51.458;7.238;2024-03-06T09:21:00;66.77;;;46.60;;
7883;SDS011;3987;51.458;7.238;2024-03-06T09:36:00;72.83;;;47.40;;
7883;SDS011;3987;51.458;7.238;2024-03-06T09:51:01;44.25;;;36.53;;
7883;SDS011;3987;51.458;7.238;2024-03-06T10:06:02;49.80;;;39.57;;
7883;SDS011;3987;51.458;7.238;2024-03-06T10:21:03;26.20;;;23.50;;
7883;SDS011;3987;51.458;7.238;2024-03-06T10:36:05;26.87;;;24.10;;
7883;SDS011;3987;51.458;7.238;2024-03-06T10:51:11;28.00;;;25.03;;
7883;SDS011;3987;51.458;7.238;2024-03-06T11:06:14;30.93;;;27.40;;
7883;SDS011;3987;51.458;7.238;2024-03-06T11:51:20;35.33;;;30.70;;
7883;SDS011;3987;51.458;7.238;2024-03-06T12:06:23;24.73;;;22.20;;
7883;SDS011;3987;51.458;7.238;2024-03-06T12:21:32;25.73;;;23.13;;
7883;SDS011;3987;51.458;7.238;2024-03-06T12:36:33;29.03;;;26.00;;
7883;SDS011;3987;51.458;7.238;2024-03-06T12:51:34;35.15;;;31.48;;
7883;SDS011;3987;51.458;7.238;2024-03-06T13:06:34;31.30;;;28.10;;
7883;SDS011;3987;51.458;7.238;2024-03-06T13:21:35;29.90;;;27.00;;
7883;SDS011;3987;51.458;7.238;2024-03-06T13:36:35;39.78;;;35.78;;
7883;SDS011;3987;51.458;7.238;2024-03-06T13:51:36;37.45;;;33.95;;
7883;SDS011;3987;51.458;7.238;2024-03-06T14:06:36;37.53;;;33.85;;
7883;SDS011;3987;51.458;7.238;2024-03-06T14:21:37;37.08;;;33.30;;
7883;SDS011;3987;51.458;7.238;2024-03-06T14:36:38;32.10;;;28.75;;
7883;SDS011;3987;51.458;7.238;2024-03-06T14:51:39;30.88;;;27.90;;
7883;SDS011;3987;51.458;7.238;2024-03-06T15:06:39;27.80;;;24.88;;
7883;SDS011;3987;51.458;7.238;2024-03-06T15:21:40;21.27;;;19.38;;
7883;SDS011;3987;51.458;7.238;2024-03-06T15:36:40;17.27;;;15.88;;
7883;SDS011;3987;51.458;7.238;2024-03-06T15:51:41;14.98;;;13.88;;
7883;SDS011;3987;51.458;7.238;2024-03-06T16:06:41;15.43;;;14.23;;
7883;SDS011;3987;51.458;7.238;2024-03-06T16:21:43;27.03;;;24.43;;
7883;SDS011;3987;51.458;7.238;2024-03-06T16:36:44;29.03;;;26.13;;
7883;SDS011;3987;51.458;7.238;2024-03-06T16:51:44;28.02;;;25.38;;
7883;SDS011;3987;51.458;7.238;2024-03-06T17:06:45;30.58;;;27.00;;
7883;SDS011;3987;51.458;7.238;2024-03-06T17:21:45;32.53;;;29.02;;
7883;SDS011;3987;51.458;7.238;2024-03-06T17:36:46;37.40;;;30.17;;
7883;SDS011;3987;51.458;7.238;2024-03-06T17:51:46;35.90;;;31.58;;
7883;SDS011;3987;51.458;7.238;2024-03-06T18:06:47;40.83;;;34.63;;
7883;SDS011;3987;51.458;7.238;2024-03-06T18:21:47;44.63;;;36.97;;
7883;SDS011;3987;51.458;7.238;2024-03-06T18:36:49;47.37;;;38.47;;
7883;SDS011;3987;51.458;7.238;2024-03-06T18:51:49;51.03;;;40.23;;
7883;SDS011;3987;51.458;7.238;2024-03-06T19:06:50;54.00;;;41.03;;
7883;SDS011;3987;51.458;7.238;2024-03-06T19:21:50;53.83;;;42.40;;
7883;SDS011;3987;51.458;7.238;2024-03-06T19:36:53;60.07;;;42.90;;
7883;SDS011;3987;51.458;7.238;2024-03-06T19:51:58;62.20;;;45.13;;
7883;SDS011;3987;51.458;7.238;2024-03-06T20:06:58;68.57;;;47.93;;
7883;SDS011;3987;51.458;7.238;2024-03-06T20:21:59;81.70;;;51.45;;
7883;SDS011;3987;51.458;7.238;2024-03-06T20:36:59;90.60;;;54.47;;
7883;SDS011;3987;51.458;7.238;2024-03-06T20:51:59;102.00;;;56.97;;
7883;SDS011;3987;51.458;7.238;2024-03-06T21:07:00;103.77;;;59.97;;
7883;SDS011;3987;51.458;7.238;2024-03-06T21:22:01;117.32;;;64.03;;
7883;SDS011;3987;51.458;7.238;2024-03-06T21:37:01;129.63;;;65.65;;
7883;SDS011;3987;51.458;7.238;2024-03-06T21:52:02;160.27;;;72.77;;
7883;SDS011;3987;51.458;7.238;2024-03-06T22:07:02;159.37;;;75.33;;
7883;SDS011;3987;51.458;7.238;2024-03-06T22:22:03;174.73;;;78.22;;
7883;SDS011;3987;51.458;7.238;2024-03-06T22:37:03;173.80;;;79.22;;
7883;SDS011;3987;51.458;7.238;2024-03-06T22:52:04;175.38;;;79.03;;
7883;SDS011;3987;51.458;7.238;2024-03-06T23:07:05;200.73;;;86.83;;
7883;SDS011;3987;51.458;7.238;2024-03-06T23:22:06;198.57;;;86.70;;
7883;SDS011;3987;51.458;7.238;2024-03-06T23:37:06;222.48;;;92.30;;
7883;SDS011;3987;51.458;7.238;2024-03-06T23:52:07;196.82;;;85.45;;
